createdAt,value
2023-11-10T00:00:51.774Z,987.24
2023-11-10T00:01:51.766Z,987.29
2023-11-10T00:02:51.799Z,987.23
2023-11-10T00:03:52.001Z,987.20
2023-11-10T00:04:51.894Z,987.23
2023-11-10T00:05:51.844Z,987.24
2023-11-10T00:06:51.728Z,987.24
2023-11-10T00:07:51.745Z,987.27
2023-11-10T00:08:51.728Z,987.27
2023-11-10T00:09:51.717Z,987.25
2023-11-10T00:10:51.719Z,987.25
2023-11-10T00:11:51.721Z,987.24
2023-11-10T00:12:51.706Z,987.22
2023-11-10T00:13:53.742Z,987.23
2023-11-10T00:14:51.693Z,987.25
2023-11-10T00:15:51.732Z,987.27
2023-11-10T00:16:51.683Z,987.29
2023-11-10T00:17:51.696Z,987.29
2023-11-10T00:18:51.669Z,987.24
2023-11-10T00:19:51.666Z,987.24
2023-11-10T00:20:51.661Z,987.20
2023-11-10T00:21:51.656Z,987.25
2023-11-10T00:22:51.648Z,987.22
2023-11-10T00:23:51.650Z,987.24
2023-11-10T00:24:51.642Z,987.18
2023-11-10T00:25:51.637Z,987.21
2023-11-10T00:26:51.627Z,987.25
2023-11-10T00:27:51.625Z,987.19
2023-11-10T00:28:51.621Z,987.19
2023-11-10T00:29:51.612Z,987.16
2023-11-10T00:30:51.626Z,987.13
2023-11-10T00:31:51.604Z,987.14
2023-11-10T00:32:51.669Z,987.13
2023-11-10T00:33:51.698Z,987.14
2023-11-10T00:34:51.589Z,987.08
2023-11-10T00:35:51.582Z,987.05
2023-11-10T00:36:51.582Z,987.10
2023-11-10T00:37:51.587Z,987.11
2023-11-10T00:38:51.563Z,987.13
2023-11-10T00:39:51.561Z,987.14
2023-11-10T00:40:51.556Z,987.17
2023-11-10T00:41:51.553Z,987.11
2023-11-10T00:42:51.549Z,987.14
2023-11-10T00:43:51.538Z,987.13
2023-11-10T00:44:51.534Z,987.16
2023-11-10T00:45:51.532Z,987.14
2023-11-10T00:46:51.527Z,987.14
2023-11-10T00:47:51.553Z,987.18
2023-11-10T00:48:51.535Z,987.13
2023-11-10T00:49:51.524Z,987.17
2023-11-10T00:50:51.505Z,987.16
2023-11-10T00:51:51.505Z,987.12
2023-11-10T00:52:51.495Z,987.15
2023-11-10T00:53:51.492Z,987.10
2023-11-10T00:54:51.485Z,987.12
2023-11-10T00:55:51.485Z,987.08
2023-11-10T00:56:51.481Z,987.07
2023-11-10T00:57:51.473Z,987.10
2023-11-10T00:58:51.466Z,987.13
2023-11-10T00:59:51.475Z,987.13
2023-11-10T01:00:53.027Z,987.09
2023-11-10T01:01:51.463Z,987.14
2023-11-10T01:02:51.568Z,987.08
2023-11-10T01:03:51.548Z,987.08
2023-11-10T01:04:51.457Z,987.08
2023-11-10T01:05:51.454Z,987.07
2023-11-10T01:06:51.516Z,987.11
2023-11-10T01:07:51.425Z,987.08
2023-11-10T01:08:51.420Z,987.00
2023-11-10T01:09:51.409Z,987.03
2023-11-10T01:10:51.400Z,987.03
2023-11-10T01:11:51.395Z,986.98
2023-11-10T01:12:51.396Z,986.96
2023-11-10T01:13:51.391Z,986.97
2023-11-10T01:14:51.377Z,987.02
2023-11-10T01:15:51.375Z,986.96
2023-11-10T01:16:51.465Z,986.94
2023-11-10T01:17:51.401Z,986.93
2023-11-10T01:18:51.467Z,986.91
2023-11-10T01:19:51.357Z,986.90
2023-11-10T01:20:51.346Z,986.89
2023-11-10T01:21:51.383Z,986.86
2023-11-10T01:22:51.334Z,986.85
2023-11-10T01:23:51.334Z,986.93
2023-11-10T01:24:51.345Z,986.86
2023-11-10T01:25:51.337Z,986.85
2023-11-10T01:26:51.336Z,986.85
2023-11-10T01:27:51.311Z,986.82
2023-11-10T01:28:51.308Z,986.79
2023-11-10T01:29:51.302Z,986.79
2023-11-10T01:30:51.352Z,986.81
2023-11-10T01:31:51.290Z,986.76
2023-11-10T01:32:51.345Z,986.75
2023-11-10T01:33:51.334Z,986.72
2023-11-10T01:34:51.271Z,986.77
2023-11-10T01:35:51.268Z,986.77
2023-11-10T01:36:51.264Z,986.76
2023-11-10T01:37:51.259Z,986.77
2023-11-10T01:38:51.260Z,986.77
2023-11-10T01:39:51.262Z,986.75
2023-11-10T01:40:51.241Z,986.77
2023-11-10T01:41:51.239Z,986.80
2023-11-10T01:42:51.236Z,986.79
2023-11-10T01:43:51.224Z,986.77
2023-11-10T01:44:51.311Z,986.80
2023-11-10T01:45:51.271Z,986.77
2023-11-10T01:46:51.374Z,986.81
2023-11-10T01:47:51.210Z,986.80
2023-11-10T01:48:51.303Z,986.72
2023-11-10T01:49:51.197Z,986.80
2023-11-10T01:50:51.188Z,986.74
2023-11-10T01:51:51.187Z,986.76
2023-11-10T01:52:51.181Z,986.73
2023-11-10T01:53:51.179Z,986.74
2023-11-10T01:54:51.207Z,986.76
2023-11-10T01:55:51.171Z,986.73
2023-11-10T01:56:51.157Z,986.73
2023-11-10T01:57:51.153Z,986.72
2023-11-10T01:58:51.148Z,986.72
2023-11-10T01:59:51.139Z,986.74
2023-11-10T02:00:51.255Z,986.74
2023-11-10T02:01:51.214Z,986.71
2023-11-10T02:02:51.289Z,986.67
2023-11-10T02:03:51.242Z,986.67
2023-11-10T02:04:51.113Z,986.67
2023-11-10T02:05:51.114Z,986.70
2023-11-10T02:06:51.152Z,986.68
2023-11-10T02:07:51.114Z,986.67
2023-11-10T02:08:51.101Z,986.66
2023-11-10T02:09:51.121Z,986.66
2023-11-10T02:10:51.082Z,986.58
2023-11-10T02:11:51.081Z,986.50
2023-11-10T02:12:51.074Z,986.53
2023-11-10T02:13:51.068Z,986.50
2023-11-10T02:14:51.083Z,986.50
2023-11-10T02:15:51.122Z,986.46
2023-11-10T02:16:51.061Z,986.43
2023-11-10T02:17:51.073Z,986.41
2023-11-10T02:18:51.066Z,986.43
2023-11-10T02:19:51.038Z,986.42
2023-11-10T02:20:51.030Z,986.42
2023-11-10T02:21:51.055Z,986.38
2023-11-10T02:22:51.062Z,986.37
2023-11-10T02:23:51.015Z,986.34
2023-11-10T02:24:51.040Z,986.33
2023-11-10T02:25:51.012Z,986.36
2023-11-10T02:26:50.995Z,986.40
2023-11-10T02:27:51.024Z,986.35
2023-11-10T02:28:50.987Z,986.34
2023-11-10T02:29:50.978Z,986.34
2023-11-10T02:30:51.033Z,986.38
2023-11-10T02:31:50.992Z,986.37
2023-11-10T02:32:51.035Z,986.30
2023-11-10T02:33:51.008Z,986.33
2023-11-10T02:34:50.954Z,986.37
2023-11-10T02:35:50.952Z,986.34
2023-11-10T02:36:51.016Z,986.32
2023-11-10T02:37:50.955Z,986.33
2023-11-10T02:38:50.929Z,986.30
2023-11-10T02:39:50.951Z,986.34
2023-11-10T02:40:50.924Z,986.33
2023-11-10T02:41:50.924Z,986.40
2023-11-10T02:42:50.913Z,986.36
2023-11-10T02:43:50.908Z,986.40
2023-11-10T02:44:50.915Z,986.36
2023-11-10T02:45:50.946Z,986.33
2023-11-10T02:46:50.890Z,986.35
2023-11-10T02:47:50.985Z,986.38
2023-11-10T02:48:50.911Z,986.33
2023-11-10T02:49:50.893Z,986.34
2023-11-10T02:50:50.875Z,986.35
2023-11-10T02:51:50.869Z,986.35
2023-11-10T02:52:50.857Z,986.35
2023-11-10T02:53:50.856Z,986.33
2023-11-10T02:54:50.848Z,986.37
2023-11-10T02:55:50.845Z,986.35
2023-11-10T02:56:50.838Z,986.33
2023-11-10T02:57:50.866Z,986.35
2023-11-10T02:58:50.828Z,986.37
2023-11-10T02:59:51.113Z,986.38
2023-11-10T03:00:50.856Z,986.34
2023-11-10T03:01:50.877Z,986.33
2023-11-10T03:02:50.833Z,986.38
2023-11-10T03:03:50.901Z,986.33
2023-11-10T03:04:50.806Z,986.35
2023-11-10T03:05:50.797Z,986.33
2023-11-10T03:06:50.807Z,986.37
2023-11-10T03:07:50.790Z,986.33
2023-11-10T03:08:50.786Z,986.38
2023-11-10T03:09:50.849Z,986.32
2023-11-10T03:10:50.770Z,986.35
2023-11-10T03:11:50.761Z,986.30
2023-11-10T03:12:50.801Z,986.24
2023-11-10T03:13:50.753Z,986.32
2023-11-10T03:14:50.758Z,986.29
2023-11-10T03:15:50.854Z,986.27
2023-11-10T03:16:50.742Z,986.19
2023-11-10T03:17:50.796Z,986.22
2023-11-10T03:18:50.771Z,986.26
2023-11-10T03:19:50.725Z,986.25
2023-11-10T03:20:50.717Z,986.19
2023-11-10T03:21:50.804Z,986.31
2023-11-10T03:22:50.746Z,986.34
2023-11-10T03:23:50.706Z,986.36
2023-11-10T03:24:50.742Z,986.33
2023-11-10T03:25:50.687Z,986.31
2023-11-10T03:26:50.684Z,986.28
2023-11-10T03:27:50.719Z,986.24
2023-11-10T03:28:50.677Z,986.22
2023-11-10T03:29:50.670Z,986.26
2023-11-10T03:30:50.678Z,986.26
2023-11-10T03:31:50.776Z,986.22
2023-11-10T03:32:50.674Z,986.22
2023-11-10T03:33:50.816Z,986.24
2023-11-10T03:34:50.646Z,986.23
2023-11-10T03:35:50.639Z,986.22
2023-11-10T03:36:50.669Z,986.25
2023-11-10T03:37:50.630Z,986.21
2023-11-10T03:38:50.621Z,986.24
2023-11-10T03:39:50.713Z,986.20
2023-11-10T03:40:50.612Z,986.20
2023-11-10T03:41:50.619Z,986.19
2023-11-10T03:42:50.658Z,986.22
2023-11-10T03:43:50.606Z,986.22
2023-11-10T03:44:50.603Z,986.20
2023-11-10T03:45:50.694Z,986.22
2023-11-10T03:46:50.585Z,986.25
2023-11-10T03:47:50.699Z,986.27
2023-11-10T03:48:50.609Z,986.25
2023-11-10T03:49:50.582Z,986.26
2023-11-10T03:50:50.560Z,986.26
2023-11-10T03:51:50.577Z,986.27
2023-11-10T03:52:50.564Z,986.27
2023-11-10T03:53:50.543Z,986.19
2023-11-10T03:54:50.615Z,986.23
2023-11-10T03:55:50.533Z,986.27
2023-11-10T03:56:50.540Z,986.25
2023-11-10T03:57:50.557Z,986.22
2023-11-10T03:58:50.539Z,986.22
2023-11-10T03:59:50.513Z,986.20
2023-11-10T04:00:50.550Z,986.21
2023-11-10T04:01:50.519Z,986.22
2023-11-10T04:02:50.518Z,986.22
2023-11-10T04:03:50.586Z,986.23
2023-11-10T04:04:50.492Z,986.20
2023-11-10T04:05:50.496Z,986.21
2023-11-10T04:06:50.563Z,986.18
2023-11-10T04:07:50.550Z,986.32
2023-11-10T04:08:50.475Z,986.25
2023-11-10T04:09:50.520Z,986.26
2023-11-10T04:10:50.464Z,986.22
2023-11-10T04:11:50.450Z,986.26
2023-11-10T04:12:50.466Z,986.25
2023-11-10T04:13:50.447Z,986.27
2023-11-10T04:14:50.455Z,986.19
2023-11-10T04:15:50.493Z,986.21
2023-11-10T04:16:50.482Z,986.20
2023-11-10T04:17:50.439Z,986.17
2023-11-10T04:18:50.428Z,986.19
2023-11-10T04:19:50.421Z,986.23
2023-11-10T04:20:50.405Z,986.23
2023-11-10T04:21:50.433Z,986.22
2023-11-10T04:22:50.400Z,986.19
2023-11-10T04:23:50.398Z,986.19
2023-11-10T04:24:50.428Z,986.19
2023-11-10T04:25:50.392Z,986.18
2023-11-10T04:26:50.375Z,986.21
2023-11-10T04:27:50.417Z,986.20
2023-11-10T04:28:50.360Z,986.22
2023-11-10T04:29:50.361Z,986.26
2023-11-10T04:30:50.486Z,986.22
2023-11-10T04:31:50.426Z,986.19
2023-11-10T04:32:50.875Z,986.22
2023-11-10T04:33:50.452Z,986.21
2023-11-10T04:34:52.677Z,986.19
2023-11-10T04:35:50.327Z,986.23
2023-11-10T04:36:50.345Z,986.24
2023-11-10T04:37:50.319Z,986.22
2023-11-10T04:38:50.313Z,986.18
2023-11-10T04:39:50.335Z,986.23
2023-11-10T04:40:50.311Z,986.22
2023-11-10T04:41:50.298Z,986.25
2023-11-10T04:42:50.338Z,986.20
2023-11-10T04:43:50.290Z,986.25
2023-11-10T04:44:50.284Z,986.17
2023-11-10T04:45:50.304Z,986.21
2023-11-10T04:46:50.329Z,986.17
2023-11-10T04:47:50.301Z,986.22
2023-11-10T04:48:50.283Z,986.22
2023-11-10T04:49:50.280Z,986.18
2023-11-10T04:50:50.268Z,986.17
2023-11-10T04:51:50.310Z,986.22
2023-11-10T04:52:50.243Z,986.20
2023-11-10T04:53:50.245Z,986.23
2023-11-10T04:54:50.252Z,986.19
2023-11-10T04:55:50.230Z,986.19
2023-11-10T04:56:50.230Z,986.22
2023-11-10T04:57:50.271Z,986.21
2023-11-10T04:58:50.242Z,986.18
2023-11-10T04:59:50.204Z,986.23
2023-11-10T05:00:50.209Z,986.20
2023-11-10T05:01:50.263Z,986.16
2023-11-10T05:02:50.220Z,986.22
2023-11-10T05:03:50.241Z,986.21
2023-11-10T05:04:50.181Z,986.20
2023-11-10T05:05:50.181Z,986.19
2023-11-10T05:06:50.204Z,986.24
2023-11-10T05:07:50.175Z,986.26
2023-11-10T05:08:50.157Z,986.21
2023-11-10T05:09:50.196Z,986.19
2023-11-10T05:10:50.164Z,986.23
2023-11-10T05:11:50.164Z,986.20
2023-11-10T05:12:50.186Z,986.17
2023-11-10T05:13:50.132Z,986.24
2023-11-10T05:14:50.128Z,986.19
2023-11-10T05:15:50.156Z,986.24
2023-11-10T05:16:50.213Z,986.18
2023-11-10T05:17:50.140Z,986.21
2023-11-10T05:19:50.112Z,986.19
2023-11-10T05:20:50.098Z,986.24
2023-11-10T05:21:50.162Z,986.20
2023-11-10T05:22:50.098Z,986.18
2023-11-10T05:23:50.081Z,986.15
2023-11-10T05:24:50.096Z,986.16
2023-11-10T05:25:50.070Z,986.14
2023-11-10T05:26:50.065Z,986.10
2023-11-10T05:27:50.090Z,986.15
2023-11-10T05:28:50.057Z,986.14
2023-11-10T05:29:50.051Z,986.18
2023-11-10T05:30:50.086Z,986.12
2023-11-10T05:31:50.060Z,986.15
2023-11-10T05:32:50.085Z,986.15
2023-11-10T05:33:50.051Z,986.14
2023-11-10T05:34:51.299Z,986.14
2023-11-10T05:35:50.017Z,986.16
2023-11-10T05:36:50.027Z,986.17
2023-11-10T05:37:50.008Z,986.19
2023-11-10T05:38:50.041Z,986.20
2023-11-10T05:39:50.023Z,986.23
2023-11-10T05:40:50.011Z,986.23
2023-11-10T05:41:49.987Z,986.24
2023-11-10T05:42:50.009Z,986.25
2023-11-10T05:43:49.973Z,986.25
2023-11-10T05:44:49.972Z,986.22
2023-11-10T05:45:50.004Z,986.25
2023-11-10T05:46:49.962Z,986.26
2023-11-10T05:47:50.047Z,986.31
2023-11-10T05:48:49.984Z,986.27
2023-11-10T05:49:49.943Z,986.25
2023-11-10T05:50:49.943Z,986.29
2023-11-10T05:51:49.973Z,986.34
2023-11-10T05:52:49.928Z,986.33
2023-11-10T05:53:49.924Z,986.33
2023-11-10T05:54:49.927Z,986.35
2023-11-10T05:55:49.912Z,986.32
2023-11-10T05:56:49.911Z,986.41
2023-11-10T05:57:49.959Z,986.39
2023-11-10T05:58:49.896Z,986.40
2023-11-10T05:59:49.892Z,986.40
2023-11-10T06:00:49.918Z,986.37
2023-11-10T06:01:49.923Z,986.40
2023-11-10T06:02:51.586Z,986.38
2023-11-10T06:03:50.005Z,986.42
2023-11-10T06:04:49.986Z,986.40
2023-11-10T06:05:49.861Z,986.39
2023-11-10T06:06:49.916Z,986.38
2023-11-10T06:07:49.855Z,986.41
2023-11-10T06:08:49.857Z,986.43
2023-11-10T06:09:49.869Z,986.46
2023-11-10T06:11:55.500Z,986.42
2023-11-10T06:12:49.853Z,986.42
2023-11-10T06:13:49.837Z,986.43
2023-11-10T06:14:49.815Z,986.47
2023-11-10T06:15:49.860Z,986.43
2023-11-10T06:16:49.972Z,986.45
2023-11-10T06:17:49.821Z,986.44
2023-11-10T06:18:49.832Z,986.45
2023-11-10T06:19:49.793Z,986.45
2023-11-10T06:20:49.789Z,986.47
2023-11-10T06:21:49.857Z,986.48
2023-11-10T06:22:49.777Z,986.50
2023-11-10T06:23:49.768Z,986.46
2023-11-10T06:24:49.774Z,986.44
2023-11-10T06:25:49.764Z,986.43
2023-11-10T06:27:55.003Z,986.48
2023-11-10T06:28:49.743Z,986.50
2023-11-10T06:29:49.739Z,986.48
2023-11-10T06:30:49.767Z,986.54
2023-11-10T06:31:49.740Z,986.54
2023-11-10T06:32:49.745Z,986.62
2023-11-10T06:33:49.784Z,986.58
2023-11-10T06:34:49.717Z,986.58
2023-11-10T06:35:49.714Z,986.60
2023-11-10T06:36:49.741Z,986.59
2023-11-10T06:37:49.696Z,986.56
2023-11-10T06:38:49.689Z,986.58
2023-11-10T06:39:49.736Z,986.54
2023-11-10T06:40:49.725Z,986.58
2023-11-10T06:41:49.672Z,986.61
2023-11-10T06:42:49.740Z,986.60
2023-11-10T06:43:49.689Z,986.64
2023-11-10T06:44:49.659Z,986.63
2023-11-10T06:45:49.700Z,986.65
2023-11-10T06:46:49.717Z,986.62
2023-11-10T06:47:49.691Z,986.65
2023-11-10T06:48:49.676Z,986.65
2023-11-10T06:49:49.832Z,986.68
2023-11-10T06:50:49.633Z,986.71
2023-11-10T06:51:49.669Z,986.69
2023-11-10T06:52:49.620Z,986.68
2023-11-10T06:53:49.628Z,986.72
2023-11-10T06:54:50.392Z,986.69
2023-11-10T06:55:49.621Z,986.72
2023-11-10T06:56:49.657Z,986.75
2023-11-10T06:57:49.773Z,986.74
2023-11-10T06:58:49.709Z,986.74
2023-11-10T06:59:49.765Z,986.76
2023-11-10T07:01:49.761Z,986.74
2023-11-10T07:02:51.908Z,986.78
2023-11-10T07:03:49.764Z,986.75
2023-11-10T07:04:49.685Z,986.78
2023-11-10T07:05:49.586Z,986.79
2023-11-10T07:06:49.612Z,986.79
2023-11-10T07:07:49.717Z,986.79
2023-11-10T07:08:49.594Z,986.80
2023-11-10T07:09:49.584Z,986.80
2023-11-10T07:10:49.525Z,986.82
2023-11-10T07:11:49.543Z,986.85
2023-11-10T07:12:49.541Z,986.87
2023-11-10T07:13:49.564Z,986.87
2023-11-10T07:14:49.511Z,986.89
2023-11-10T07:15:49.657Z,986.87
2023-11-10T07:16:49.863Z,986.93
2023-11-10T07:17:49.851Z,986.92
2023-11-10T07:19:49.592Z,986.94
2023-11-10T07:20:49.575Z,986.98
2023-11-10T07:21:49.507Z,986.96
2023-11-10T07:22:49.469Z,986.99
2023-11-10T07:23:49.468Z,986.97
2023-11-10T07:24:49.462Z,986.86
2023-11-10T07:25:49.460Z,986.97
2023-11-10T07:26:49.447Z,986.96
2023-11-10T07:27:49.504Z,987.00
2023-11-10T07:29:49.445Z,986.94
2023-11-10T07:30:49.450Z,987.00
2023-11-10T07:31:49.481Z,986.98
2023-11-10T07:32:49.476Z,987.04
2023-11-10T07:33:49.430Z,987.02
2023-11-10T07:34:49.406Z,987.02
2023-11-10T07:35:49.401Z,987.02
2023-11-10T07:36:49.425Z,987.00
2023-11-10T07:37:49.399Z,986.95
2023-11-10T07:38:49.395Z,987.01
2023-11-10T07:39:49.411Z,986.99
2023-11-10T07:40:49.388Z,987.03
2023-11-10T07:41:49.382Z,987.03
2023-11-10T07:42:49.386Z,987.09
2023-11-10T07:43:49.358Z,987.04
2023-11-10T07:44:49.361Z,987.00
2023-11-10T07:45:49.501Z,987.05
2023-11-10T07:47:49.425Z,987.02
2023-11-10T07:48:49.466Z,987.06
2023-11-10T07:49:49.365Z,986.98
2023-11-10T07:50:49.324Z,987.03
2023-11-10T07:51:49.327Z,987.08
2023-11-10T07:52:49.323Z,987.04
2023-11-10T07:53:49.310Z,987.04
2023-11-10T07:54:57.883Z,987.00
2023-11-10T07:55:49.301Z,987.09
2023-11-10T07:56:49.297Z,986.99
2023-11-10T07:57:49.585Z,987.00
2023-11-10T07:58:49.284Z,987.07
2023-11-10T07:59:49.280Z,986.98
2023-11-10T08:00:49.291Z,986.95
2023-11-10T08:01:49.296Z,986.99
2023-11-10T08:02:49.392Z,987.03
2023-11-10T08:03:49.293Z,987.01
2023-11-10T08:04:49.320Z,987.03
2023-11-10T08:05:49.254Z,987.01
2023-11-10T08:06:49.276Z,987.03
2023-11-10T08:07:49.246Z,987.02
2023-11-10T08:08:49.233Z,987.04
2023-11-10T08:09:49.284Z,986.99
2023-11-10T08:10:49.230Z,987.00
2023-11-10T08:11:52.915Z,986.99
2023-11-10T08:12:49.255Z,986.99
2023-11-10T08:13:49.220Z,987.02
2023-11-10T08:14:49.245Z,986.99
2023-11-10T08:15:49.375Z,987.00
2023-11-10T08:16:50.322Z,987.01
2023-11-10T08:17:49.256Z,987.00
2023-11-10T08:18:49.435Z,987.03
2023-11-10T08:19:49.301Z,987.02
2023-11-10T08:20:49.349Z,987.06
2023-11-10T08:21:49.530Z,987.07
2023-11-10T08:22:49.307Z,987.00
2023-11-10T08:23:49.294Z,986.98
2023-11-10T08:24:49.326Z,987.02
2023-11-10T08:25:49.275Z,987.00
2023-11-10T08:26:49.151Z,987.08
2023-11-10T08:27:49.187Z,987.06
2023-11-10T08:28:49.136Z,987.09
2023-11-10T08:29:49.136Z,987.09
2023-11-10T08:30:49.229Z,987.11
2023-11-10T08:31:49.177Z,987.14
2023-11-10T08:32:49.168Z,987.11
2023-11-10T08:33:49.776Z,987.14
2023-11-10T08:34:49.106Z,987.20
2023-11-10T08:35:49.109Z,987.18
2023-11-10T08:36:49.164Z,987.16
2023-11-10T08:37:49.106Z,987.09
2023-11-10T08:38:49.092Z,987.16
2023-11-10T08:39:49.117Z,987.17
2023-11-10T08:40:49.082Z,987.16
2023-11-10T08:41:49.081Z,987.14
2023-11-10T08:42:49.101Z,987.16
2023-11-10T08:43:49.087Z,987.20
2023-11-10T08:44:49.065Z,987.18
2023-11-10T08:45:49.205Z,987.11
2023-11-10T08:46:49.151Z,987.14
2023-11-10T08:47:49.135Z,987.10
2023-11-10T08:48:49.482Z,987.14
2023-11-10T08:49:49.070Z,987.10
2023-11-10T08:50:49.039Z,987.10
2023-11-10T08:51:49.058Z,987.11
2023-11-10T08:52:49.032Z,987.12
2023-11-10T08:53:49.046Z,987.17
2023-11-10T08:54:49.356Z,987.20
2023-11-10T08:55:49.385Z,987.18
2023-11-10T08:56:49.026Z,987.21
2023-11-10T08:57:49.073Z,987.13
2023-11-10T08:58:49.007Z,987.15
2023-11-10T08:59:49.010Z,987.09
2023-11-10T09:00:49.016Z,987.08
2023-11-10T09:01:49.030Z,987.08
2023-11-10T09:02:49.001Z,987.05
2023-11-10T09:03:49.055Z,987.12
2023-11-10T09:04:49.076Z,987.09
2023-11-10T09:05:48.974Z,987.03
2023-11-10T09:06:49.249Z,987.12
2023-11-10T09:07:48.964Z,987.09
2023-11-10T09:08:49.004Z,987.13
2023-11-10T09:09:48.994Z,987.12
2023-11-10T09:10:48.960Z,987.15
2023-11-10T09:11:48.948Z,987.12
2023-11-10T09:12:49.044Z,987.13
2023-11-10T09:13:51.586Z,987.11
2023-11-10T09:14:48.932Z,987.15
2023-11-10T09:15:56.874Z,987.16
2023-11-10T09:16:48.993Z,987.12
2023-11-10T09:17:48.944Z,987.15
2023-11-10T09:18:49.174Z,987.21
2023-11-10T09:19:48.934Z,987.12
2023-11-10T09:20:48.938Z,987.18
2023-11-10T09:21:48.937Z,987.19
2023-11-10T09:22:48.925Z,987.09
2023-11-10T09:23:48.898Z,987.14
2023-11-10T09:24:48.959Z,987.12
2023-11-10T09:25:48.890Z,987.16
2023-11-10T09:26:49.026Z,987.15
2023-11-10T09:27:48.951Z,987.12
2023-11-10T09:28:48.887Z,987.15
2023-11-10T09:29:48.889Z,987.15
2023-11-10T09:30:48.944Z,987.10
2023-11-10T09:31:48.913Z,987.12
2023-11-10T09:32:48.938Z,987.14
2023-11-10T09:33:48.965Z,987.15
2023-11-10T09:34:48.871Z,987.13
2023-11-10T09:35:48.858Z,987.17
2023-11-10T09:36:48.936Z,987.13
2023-11-10T09:37:49.008Z,987.11
2023-11-10T09:38:48.861Z,987.09
2023-11-10T09:39:48.935Z,987.11
2023-11-10T09:40:50.060Z,987.13
2023-11-10T09:41:48.829Z,987.01
2023-11-10T09:42:48.952Z,987.06
2023-11-10T09:43:48.821Z,987.09
2023-11-10T09:44:48.817Z,987.02
2023-11-10T09:45:48.939Z,987.00
2023-11-10T09:46:48.828Z,987.01
2023-11-10T09:47:48.948Z,987.01
2023-11-10T09:48:48.958Z,987.02
2023-11-10T09:49:48.800Z,986.94
2023-11-10T09:50:48.790Z,986.95
2023-11-10T09:51:48.821Z,986.98
2023-11-10T09:52:48.783Z,986.95
2023-11-10T09:53:48.793Z,987.01
2023-11-10T09:54:48.794Z,987.02
2023-11-10T09:55:48.773Z,987.03
2023-11-10T09:56:48.775Z,987.03
2023-11-10T09:57:48.787Z,987.01
2023-11-10T09:58:48.776Z,987.03
2023-11-10T09:59:48.774Z,987.01
2023-11-10T10:00:48.794Z,986.94
2023-11-10T10:01:48.769Z,986.96
2023-11-10T10:02:48.936Z,986.95
2023-11-10T10:03:48.820Z,986.88
2023-11-10T10:04:48.778Z,986.88
2023-11-10T10:05:48.740Z,986.88
2023-11-10T10:06:48.776Z,986.86
2023-11-10T10:07:48.758Z,986.89
2023-11-10T10:08:48.731Z,986.89
2023-11-10T10:09:48.775Z,986.87
2023-11-10T10:10:48.727Z,986.88
2023-11-10T10:11:48.724Z,986.88
2023-11-10T10:12:48.743Z,986.86
2023-11-10T10:13:48.721Z,986.85
2023-11-10T10:14:48.708Z,986.85
2023-11-10T10:15:48.776Z,986.90
2023-11-10T10:16:48.728Z,986.85
2023-11-10T10:17:48.719Z,986.83
2023-11-10T10:18:48.740Z,986.79
2023-11-10T10:19:48.694Z,986.80
2023-11-10T10:20:48.688Z,986.73
2023-11-10T10:21:48.757Z,986.75
2023-11-10T10:22:48.700Z,986.73
2023-11-10T10:23:48.677Z,986.76
2023-11-10T10:24:48.740Z,986.69
2023-11-10T10:25:48.672Z,986.75
2023-11-10T10:26:48.690Z,986.69
2023-11-10T10:27:48.716Z,986.75
2023-11-10T10:28:48.665Z,986.67
2023-11-10T10:29:48.659Z,986.69
2023-11-10T10:30:48.840Z,986.69
2023-11-10T10:31:48.795Z,986.71
2023-11-10T10:32:48.660Z,986.64
2023-11-10T10:33:48.730Z,986.68
2023-11-10T10:34:48.640Z,986.68
2023-11-10T10:35:48.638Z,986.64
2023-11-10T10:36:48.646Z,986.65
2023-11-10T10:37:48.626Z,986.61
2023-11-10T10:38:48.628Z,986.61
2023-11-10T10:39:48.663Z,986.58
2023-11-10T10:40:48.628Z,986.60
2023-11-10T10:41:48.657Z,986.50
2023-11-10T10:42:48.644Z,986.55
2023-11-10T10:43:58.308Z,986.47
2023-11-10T10:44:48.603Z,986.51
2023-11-10T10:45:48.625Z,986.52
2023-11-10T10:46:48.653Z,986.53
2023-11-10T10:47:48.635Z,986.44
2023-11-10T10:48:48.622Z,986.49
2023-11-10T10:49:48.595Z,986.51
2023-11-10T10:50:48.586Z,986.49
2023-11-10T10:51:48.598Z,986.41
2023-11-10T10:52:48.591Z,986.40
2023-11-10T10:53:48.592Z,986.44
2023-11-10T10:54:48.594Z,986.38
2023-11-10T10:55:48.599Z,986.39
2023-11-10T10:56:48.564Z,986.42
2023-11-10T10:57:48.649Z,986.44
2023-11-10T10:58:48.564Z,986.36
2023-11-10T10:59:48.549Z,986.37
2023-11-10T11:00:48.592Z,986.34
2023-11-10T11:01:48.615Z,986.31
2023-11-10T11:02:48.636Z,986.34
2023-11-10T11:03:48.701Z,986.34
2023-11-10T11:04:48.529Z,986.34
2023-11-10T11:05:48.529Z,986.34
2023-11-10T11:06:48.559Z,986.34
2023-11-10T11:07:48.522Z,986.34
2023-11-10T11:08:48.516Z,986.34
2023-11-10T11:09:48.559Z,986.33
2023-11-10T11:10:48.524Z,986.33
2023-11-10T11:11:48.534Z,986.31
2023-11-10T11:12:48.557Z,986.28
2023-11-10T11:13:48.537Z,986.25
2023-11-10T11:14:48.503Z,986.26
2023-11-10T11:15:48.541Z,986.30
2023-11-10T11:16:48.557Z,986.30
2023-11-10T11:17:48.531Z,986.28
2023-11-10T11:18:48.553Z,986.23
2023-11-10T11:19:48.495Z,986.25
2023-11-10T11:20:48.478Z,986.30
2023-11-10T11:21:48.501Z,986.29
2023-11-10T11:22:48.469Z,986.24
2023-11-10T11:23:48.468Z,986.25
2023-11-10T11:24:48.480Z,986.19
2023-11-10T11:25:48.489Z,986.17
2023-11-10T11:26:48.464Z,986.15
2023-11-10T11:27:48.465Z,986.15
2023-11-10T11:28:48.455Z,986.18
2023-11-10T11:29:48.452Z,986.12
2023-11-10T11:30:48.502Z,986.10
2023-11-10T11:31:48.615Z,986.09
2023-11-10T11:32:48.462Z,986.12
2023-11-10T11:33:48.478Z,986.09
2023-11-10T11:34:48.434Z,986.10
2023-11-10T11:35:49.123Z,986.11
2023-11-10T11:36:48.497Z,986.12
2023-11-10T11:37:48.439Z,986.12
2023-11-10T11:38:48.506Z,986.14
2023-11-10T11:39:48.464Z,986.11
2023-11-10T11:40:48.412Z,986.10
2023-11-10T11:41:48.413Z,986.09
2023-11-10T11:42:48.423Z,986.08
2023-11-10T11:43:48.397Z,986.05
2023-11-10T11:44:48.406Z,986.10
2023-11-10T11:45:48.418Z,986.11
2023-11-10T11:46:48.442Z,986.07
2023-11-10T11:47:48.393Z,986.11
2023-11-10T11:48:48.437Z,986.09
2023-11-10T11:49:48.377Z,986.11
2023-11-10T11:50:48.369Z,986.04
2023-11-10T11:51:48.379Z,986.06
2023-11-10T11:52:48.364Z,986.07
2023-11-10T11:53:48.361Z,986.09
2023-11-10T11:54:48.382Z,986.01
2023-11-10T11:55:48.357Z,986.03
2023-11-10T11:56:48.360Z,986.02
2023-11-10T11:57:48.460Z,986.05
2023-11-10T11:58:48.364Z,986.01
2023-11-10T11:59:48.339Z,986.08
2023-11-10T12:00:48.372Z,986.08
2023-11-10T12:01:48.437Z,986.05
2023-11-10T12:02:48.374Z,986.07
2023-11-10T12:03:48.353Z,986.06
2023-11-10T12:04:48.528Z,986.10
2023-11-10T12:05:48.313Z,986.09
2023-11-10T12:06:48.330Z,986.09
2023-11-10T12:07:48.309Z,986.09
2023-11-10T12:08:48.304Z,986.10
2023-11-10T12:09:48.342Z,986.10
2023-11-10T12:10:48.297Z,986.11
2023-11-10T12:11:48.307Z,986.12
2023-11-10T12:12:48.307Z,986.10
2023-11-10T12:13:48.300Z,986.14
2023-11-10T12:14:48.282Z,986.08
2023-11-10T12:15:48.455Z,985.99
2023-11-10T12:16:48.310Z,986.10
2023-11-10T12:17:48.319Z,986.05
2023-11-10T12:18:48.296Z,986.07
2023-11-10T12:19:48.264Z,986.06
2023-11-10T12:20:48.271Z,986.07
2023-11-10T12:21:48.332Z,986.04
2023-11-10T12:22:48.260Z,986.08
2023-11-10T12:23:48.252Z,986.13
2023-11-10T12:24:48.262Z,986.08
2023-11-10T12:25:48.242Z,986.12
2023-11-10T12:26:48.247Z,986.11
2023-11-10T12:27:48.289Z,986.10
2023-11-10T12:28:48.242Z,986.08
2023-11-10T12:29:48.230Z,986.13
2023-11-10T12:30:48.271Z,986.03
2023-11-10T12:31:48.227Z,986.08
2023-11-10T12:32:48.263Z,986.13
2023-11-10T12:33:48.286Z,986.10
2023-11-10T12:34:48.238Z,986.20
2023-11-10T12:35:48.217Z,986.15